Portada
METAR-TAF:

METAR-TAF

Aeropuertos :

Aeropuerto Internacional de Marsa Alam

Marsa Alam, Egipto

latitud: 25-33-25N, longitud: 34-35-01E, altitud: 77 m

Observación

El informe se hizo hace 2 horas y 4 minutos, a las 01:00 UTC
Viento 8 kt del oeste
Temperatura 14°C
Humedad 63%
Presión 1019 hPa
Visibilidad 10 km o más
sin nubes por debajo de 1500 m y sin presencia de cumulonimbus.

METAR: HEMA 270100Z 27008KT CAVOK 14/07 Q1019 NOSIG

Hora: 05:04 (03:04 UTC)

Pronóstico

El informe se hizo hace 4 horas y 4 minutos, a las 23:00 UTC
Pronóstico válido del 27 a las 00 UTC al 28 a las 06 UTC
Viento 8 kt del oeste-noroeste
Visibilidad 10 km o más
sin nubes por debajo de 1500 m y sin presencia de cumulonimbus.

TAF: HEMA 262300Z 2700/2806 29008KT CAVOK

Observaciones y pronósticos meteorológicos de más de 4000 aeropuertos (mensajes METAR y TAF).

Los puntos amarillos y rojos representan las estaciones disponibles.

Ponga el ratón en el punto deseado para ver el nombre de la estación.

Haga clic para ver las observaciones y los pronósticos meteorológicos.

Para cambiar el mapa : haga clic en los botones verdes con una cruz de color negro para hacer un zoom, en el botón verde con un guión para alejar o en las flechas verdes para mapas adyacentes.


METAR-TAF: